Bookmark and Share
Track history (hours):
 

Sea Thames

Last reported at 2014-Apr-21 23:33 UTC. Time now 2014-Apr-23 12:48 UTC.
Position N 51°13' E 004°33'.

Length 87 m; draft 3.4 m.

Type: Cargo ship. MMSI: 304933000.

NotesDate/timePositionNaut miles runAvg speedWind from/ knotsBaromVisibWave heightAir tempDewpointWater temp
2014-Apr-21 23:33N 51°13' E 004°33'1 1.1
2014-Apr-21 22:30N 51°14' E 004°32'2 2.3
2014-Apr-21 21:31N 51°14' E 004°28'3 2.7
2014-Apr-21 20:32N 51°15' E 004°24'0 0.0
2014-Apr-21 19:32N 51°15' E 004°24'0 0.0
2014-Apr-21 18:32N 51°15' E 004°24'0 0.0
2014-Apr-21 17:32N 51°15' E 004°24'0 0.0
2014-Apr-21 16:33N 51°15' E 004°24'2 1.5
2014-Apr-21 15:33N 51°14' E 004°22'8 7.9
2014-Apr-21 14:32N 51°21' E 004°15'7 7.3
2014-Apr-21 13:34N 51°22' E 004°03'4 4.2
2014-Apr-21 12:32N 51°23' E 003°56'7 6.8
2014-Apr-21 11:33N 51°21' E 003°46'7 6.8
2014-Apr-21 10:33N 51°25' E 003°37'14 6.5
2014-Apr-21 08:22N 51°23' E 003°14'7 8.1
2014-Apr-21 07:32N 51°22' E 003°04'9 9.2
2014-Apr-21 06:33N 51°22' E 002°49'9 9.1
2014-Apr-21 05:32N 51°22' E 002°34'9 9.3
2014-Apr-21 04:32N 51°18' E 002°20'8 8.6
2014-Apr-21 03:33N 51°14' E 002°10'9 9.0
2014-Apr-21 02:34N 51°09' E 001°57'9 8.7
2014-Apr-21 01:33N 51°05' E 001°45'  
2014-Apr-14 14:33N 43°27' W 003°14'9 9.2
2014-Apr-14 13:34N 43°22' W 003°03'2 1.0
2014-Apr-14 11:33N 43°20' W 003°02'0 0.0
2014-Apr-14 10:33N 43°20' W 003°02'0 0.0
2014-Apr-14 09:33N 43°20' W 003°02'0 0.0
2014-Apr-14 08:33N 43°20' W 003°02'0 0.0
2014-Apr-14 07:33N 43°20' W 003°02'0 0.0
2014-Apr-14 06:33N 43°20' W 003°02'0 0.0
2014-Apr-14 05:33N 43°20' W 003°02'  

Dump ship's entire track history

sailing weather and tide predictions

Sea Thames — V2BV1 — position and weather